Time;durP1;ratioP1;P1;durP2;ratioP2;P2;SDS_P1;SDS_P2;PMS_P1;PMS_P2;Temp;Humidity;BMP_temperature;BMP_pressure;BME280_temperature;BME280_humidity;BME280_pressure;Samples;Min_cycle;Max_cycle;Signal;HPM_P1;HPM_P2
2021/07/01 00:02:22;;;;;;;47.65;7.03;;;18.90;81.40;;;;;;5008445;28;20038;-60
2021/07/01 00:04:48;;;;;;;49.38;6.70;;;19.00;81.60;;;;;;5007525;28;20042;-60
2021/07/01 00:07:13;;;;;;;44.42;6.78;;;18.90;81.40;;;;;;4988581;28;20104;-61
2021/07/01 00:09:39;;;;;;;48.47;8.35;;;18.90;81.40;;;;;;5007683;28;20025;-61
2021/07/01 00:12:04;;;;;;;45.40;6.57;;;18.90;81.50;;;;;;5004782;28;20319;-61
2021/07/01 00:14:30;;;;;;;41.17;5.82;;;18.90;81.50;;;;;;4990154;28;20014;-61
2021/07/01 00:16:56;;;;;;;36.78;6.88;;;18.90;81.60;;;;;;5008300;28;20885;-61
2021/07/01 00:19:22;;;;;;;27.67;5.93;;;18.90;81.60;;;;;;4990559;28;20028;-61
2021/07/01 00:21:47;;;;;;;37.33;7.03;;;18.90;81.50;;;;;;5007445;28;20050;-61
2021/07/01 00:24:13;;;;;;;53.10;6.75;;;18.60;81.40;;;;;;5007328;28;20092;-60
2021/07/01 00:26:39;;;;;;;45.95;6.55;;;18.90;81.50;;;;;;5005608;28;20033;-61
2021/07/01 00:29:04;;;;;;;37.67;6.50;;;18.90;81.50;;;;;;5008156;28;20355;-61
2021/07/01 00:31:31;;;;;;;34.05;5.95;;;18.90;81.60;;;;;;4986878;28;20077;-61
2021/07/01 00:33:57;;;;;;;27.38;6.70;;;18.80;81.60;;;;;;5005702;28;20088;-61
2021/07/01 00:36:23;;;;;;;45.22;6.63;;;18.80;81.60;;;;;;5006366;28;20038;-61
2021/07/01 00:38:50;;;;;;;31.15;6.50;;;18.80;81.60;;;;;;5007459;28;20107;-61
2021/07/01 00:41:15;;;;;;;37.53;5.93;;;18.80;81.70;;;;;;5006035;28;20040;-60
2021/07/01 00:43:41;;;;;;;22.48;5.60;;;18.80;81.60;;;;;;5005515;28;20029;-61
2021/07/01 00:46:09;;;;;;;27.35;6.13;;;18.80;81.60;;;;;;5006446;28;20097;-60
2021/07/01 00:48:35;;;;;;;27.52;6.28;;;18.80;81.60;;;;;;5003334;28;20478;-61
2021/07/01 00:51:02;;;;;;;15.00;4.35;;;18.80;81.60;;;;;;4972470;28;20169;-61
2021/07/01 00:53:27;;;;;;;24.63;5.03;;;18.80;81.50;;;;;;5002060;28;20033;-61
2021/07/01 00:55:53;;;;;;;19.13;6.10;;;18.80;81.50;;;;;;4970740;28;20381;-61
2021/07/01 00:58:19;;;;;;;17.60;5.32;;;18.70;81.50;;;;;;5004568;28;20038;-61
2021/07/01 01:03:13;;;;;;;23.85;4.88;;;18.70;81.60;;;;;;5004690;28;20074;-61
2021/07/01 01:05:38;;;;;;;35.60;6.75;;;18.70;81.60;;;;;;5006523;28;20022;-61
2021/07/01 01:08:04;;;;;;;23.60;5.63;;;18.70;81.50;;;;;;5006698;28;20113;-61
2021/07/01 01:10:29;;;;;;;26.50;4.60;;;18.70;81.50;;;;;;4989919;28;21253;-61
2021/07/01 01:12:55;;;;;;;23.77;6.03;;;18.70;81.60;;;;;;5004601;28;20029;-60
2021/07/01 01:15:20;;;;;;;22.58;4.82;;;18.70;81.60;;;;;;5006312;28;20038;-60
2021/07/01 01:17:46;;;;;;;30.20;5.55;;;18.70;81.60;;;;;;5005609;28;20022;-61
2021/07/01 01:20:13;;;;;;;19.92;4.55;;;18.70;81.60;;;;;;5006194;28;20468;-61
2021/07/01 01:22:38;;;;;;;17.45;4.68;;;18.70;81.70;;;;;;5020459;28;20671;-60
2021/07/01 01:25:05;;;;;;;17.90;5.07;;;18.60;81.70;;;;;;4989242;28;20026;-60
2021/07/01 01:27:30;;;;;;;21.88;4.90;;;18.60;81.70;;;;;;5005120;28;20096;-61
2021/07/01 01:29:56;;;;;;;17.88;4.72;;;18.60;81.70;;;;;;4988468;28;20517;-61
2021/07/01 01:32:21;;;;;;;13.15;4.28;;;18.60;81.80;;;;;;5005635;28;20548;-61
2021/07/01 01:34:47;;;;;;;19.75;4.63;;;18.60;81.80;;;;;;4988747;28;20033;-61
2021/07/01 01:37:12;;;;;;;19.13;5.03;;;18.70;81.90;;;;;;5006449;28;20038;-61
2021/07/01 01:39:38;;;;;;;19.50;4.53;;;18.70;81.90;;;;;;4987850;28;20033;-61
2021/07/01 01:42:04;;;;;;;19.23;5.25;;;18.60;81.80;;;;;;5003990;28;20438;-61
2021/07/01 01:44:29;;;;;;;17.02;5.03;;;18.60;81.80;;;;;;5006236;28;20033;-61
2021/07/01 01:46:55;;;;;;;17.00;4.50;;;18.60;81.80;;;;;;5005060;28;20454;-60
2021/07/01 01:49:21;;;;;;;19.63;4.97;;;18.60;81.80;;;;;;5006635;28;20030;-61
2021/07/01 01:51:46;;;;;;;15.75;4.53;;;18.60;81.90;;;;;;5003296;28;20061;-61
2021/07/01 01:54:12;;;;;;;15.27;4.35;;;18.60;82.00;;;;;;4987257;28;20289;-60
2021/07/01 01:56:45;;;;;;;15.18;4.32;;;18.60;82.00;;;;;;5001771;28;20548;-60
2021/07/01 01:59:10;;;;;;;12.52;4.03;;;18.60;82.00;;;;;;4988529;28;20045;-61
2021/07/01 02:01:36;;;;;;;15.18;4.28;;;18.60;82.00;;;;;;5006406;28;20033;-60
2021/07/01 02:04:03;;;;;;;12.73;3.47;;;18.60;81.40;;;;;;5002845;28;20088;-60
2021/07/01 02:06:28;;;;;;;15.40;4.50;;;18.60;82.00;;;;;;5004361;28;20022;-61
2021/07/01 02:08:54;;;;;;;11.10;3.47;;;18.60;82.00;;;;;;5005579;28;20105;-60
2021/07/01 02:11:19;;;;;;;19.17;4.15;;;18.60;82.00;;;;;;4986166;28;20049;-61
2021/07/01 02:13:45;;;;;;;13.27;3.10;;;18.60;82.00;;;;;;5005812;28;20030;-60
2021/07/01 02:16:11;;;;;;;8.27;3.33;;;18.50;82.00;;;;;;5005267;28;20030;-61
2021/07/01 02:18:36;;;;;;;14.55;3.85;;;18.50;82.10;;;;;;5005598;28;20024;-61
2021/07/01 02:21:03;;;;;;;8.32;3.53;;;18.50;82.00;;;;;;4979195;28;20059;-61
2021/07/01 02:23:29;;;;;;;11.10;3.45;;;18.50;82.10;;;;;;4983229;28;20038;-61
2021/07/01 02:25:54;;;;;;;15.00;3.90;;;18.50;82.10;;;;;;4968045;28;20019;-60
2021/07/01 02:28:20;;;;;;;15.20;3.92;;;18.50;82.10;;;;;;4984475;28;20034;-60
2021/07/01 02:30:45;;;;;;;17.80;3.60;;;18.50;82.10;;;;;;4985750;28;20041;-60
2021/07/01 02:33:11;;;;;;;10.50;3.60;;;18.50;82.10;;;;;;4985335;28;20046;-60
2021/07/01 02:35:36;;;;;;;8.52;3.03;;;18.50;82.10;;;;;;4985786;28;20026;-61
2021/07/01 02:38:02;;;;;;;12.70;3.78;;;18.50;82.10;;;;;;4985937;28;20038;-60
2021/07/01 02:40:28;;;;;;;11.00;4.05;;;18.50;82.10;;;;;;4984561;28;20069;-61
2021/07/01 02:42:53;;;;;;;7.82;3.67;;;18.50;82.10;;;;;;4965793;28;20049;-60
2021/07/01 02:45:19;;;;;;;9.05;2.85;;;18.50;82.20;;;;;;4984580;28;20031;-61
2021/07/01 02:47:44;;;;;;;9.75;3.72;;;18.50;82.20;;;;;;4984576;28;20026;-60
2021/07/01 02:50:10;;;;;;;7.80;3.28;;;18.50;82.20;;;;;;4982725;28;20034;-61
2021/07/01 02:52:36;;;;;;;6.43;2.90;;;18.50;82.30;;;;;;4978916;28;20109;-61
2021/07/01 02:55:03;;;;;;;5.95;2.97;;;18.50;82.20;;;;;;4980536;28;20392;-61
2021/07/01 02:57:29;;;;;;;7.95;3.50;;;18.50;82.40;;;;;;4982608;28;20217;-60
2021/07/01 02:59:54;;;;;;;8.63;2.72;;;18.50;82.40;;;;;;4979083;28;20119;-61
2021/07/01 03:02:20;;;;;;;10.68;2.75;;;18.50;82.40;;;;;;4981453;28;20033;-61
2021/07/01 03:04:45;;;;;;;11.52;2.97;;;18.50;82.40;;;;;;4981638;28;20394;-60
2021/07/01 03:07:11;;;;;;;7.13;2.75;;;18.40;82.40;;;;;;4981183;28;20387;-60
2021/07/01 03:09:36;;;;;;;6.10;2.63;;;18.50;82.50;;;;;;4980208;28;20022;-60
2021/07/01 03:12:02;;;;;;;11.18;3.28;;;18.50;82.60;;;;;;4982551;28;20034;-61
2021/07/01 03:14:27;;;;;;;7.80;2.85;;;18.50;82.60;;;;;;4982706;28;20557;-61
2021/07/01 03:16:53;;;;;;;8.43;2.95;;;18.40;82.60;;;;;;4962641;28;20049;-61
2021/07/01 03:19:18;;;;;;;8.73;2.63;;;18.40;82.60;;;;;;4982341;28;20041;-61
2021/07/01 03:21:44;;;;;;;7.38;3.28;;;18.40;82.60;;;;;;4982170;28;20086;-61
2021/07/01 03:24:09;;;;;;;7.38;2.40;;;18.40;82.70;;;;;;5005029;28;20374;-61
2021/07/01 03:26:35;;;;;;;10.23;4.22;;;18.40;82.80;;;;;;5004833;28;20030;-61
2021/07/01 03:29:00;;;;;;;9.70;4.75;;;18.40;82.80;;;;;;5004444;28;20101;-60
2021/07/01 03:31:26;;;;;;;9.95;4.45;;;18.40;82.90;;;;;;5004335;28;20033;-61
2021/07/01 03:33:51;;;;;;;7.55;3.85;;;18.40;83.00;;;;;;5017853;28;20038;-60
2021/07/01 03:36:17;;;;;;;6.90;3.17;;;18.40;83.00;;;;;;5004848;28;20022;-60
2021/07/01 03:38:42;;;;;;;5.70;3.15;;;18.40;83.00;;;;;;5004419;28;20042;-61
2021/07/01 03:41:08;;;;;;;6.00;2.90;;;18.40;83.10;;;;;;5019755;28;20050;-61
2021/07/01 03:43:36;;;;;;;3.13;2.70;;;18.40;83.20;;;;;;4985302;28;20173;-61
2021/07/01 03:46:01;;;;;;;8.20;3.00;;;18.40;83.20;;;;;;4986144;28;20069;-61
2021/07/01 03:48:27;;;;;;;5.20;2.70;;;18.40;83.20;;;;;;5004488;28;20065;-61
2021/07/01 03:50:52;;;;;;;8.35;3.50;;;18.40;83.20;;;;;;5002776;28;20113;-60
2021/07/01 03:53:18;;;;;;;11.07;3.33;;;18.40;83.30;;;;;;5004512;28;20034;-61
2021/07/01 03:55:43;;;;;;;6.32;2.60;;;18.30;83.30;;;;;;5003878;28;20505;-61
2021/07/01 03:58:09;;;;;;;6.10;2.67;;;18.40;83.50;;;;;;4999178;28;20054;-60
2021/07/01 04:00:35;;;;;;;7.95;2.45;;;18.40;83.60;;;;;;5004535;28;20030;-61
2021/07/01 04:03:00;;;;;;;4.43;2.47;;;18.30;83.70;;;;;;5003795;28;20466;-61
2021/07/01 04:05:26;;;;;;;5.50;2.60;;;18.30;83.80;;;;;;5002704;28;20127;-61
2021/07/01 04:07:51;;;;;;;5.80;2.42;;;18.30;83.80;;;;;;5019341;28;20088;-61
2021/07/01 04:10:18;;;;;;;5.90;2.70;;;18.30;83.80;;;;;;5002365;28;20441;-61
2021/07/01 04:12:44;;;;;;;5.97;2.40;;;18.30;83.80;;;;;;5004222;28;20072;-61
2021/07/01 04:15:10;;;;;;;3.72;2.28;;;18.30;83.70;;;;;;5002111;28;20034;-61
2021/07/01 04:17:36;;;;;;;5.68;2.15;;;18.30;84.00;;;;;;4986413;28;20029;-61
2021/07/01 04:20:01;;;;;;;6.30;2.05;;;18.30;84.10;;;;;;4986314;28;20022;-61
2021/07/01 04:22:27;;;;;;;4.72;2.08;;;18.30;84.10;;;;;;5014318;28;20057;-61
2021/07/01 04:24:53;;;;;;;4.57;2.35;;;18.30;84.00;;;;;;5018269;28;20522;-61
2021/07/01 04:27:19;;;;;;;3.13;1.85;;;18.30;84.20;;;;;;5003949;28;20045;-61
2021/07/01 04:29:44;;;;;;;4.38;2.05;;;18.30;84.60;;;;;;5002320;28;20029;-61
2021/07/01 04:32:10;;;;;;;9.93;2.65;;;18.40;84.50;;;;;;5003408;28;20457;-61
2021/07/01 04:34:36;;;;;;;5.07;1.95;;;18.30;84.50;;;;;;4987087;28;20070;-61
2021/07/01 04:37:03;;;;;;;5.60;1.98;;;18.30;84.40;;;;;;5006245;28;20593;-61
2021/07/01 04:39:28;;;;;;;5.60;2.47;;;18.30;84.40;;;;;;4989670;28;20749;-61
2021/07/01 04:41:54;;;;;;;5.35;2.58;;;18.30;84.30;;;;;;5006036;28;20056;-61
2021/07/01 04:44:19;;;;;;;5.05;2.25;;;18.40;84.40;;;;;;5006273;28;20026;-61
2021/07/01 04:46:45;;;;;;;9.93;2.58;;;18.30;84.30;;;;;;5005063;28;20424;-61
2021/07/01 04:49:10;;;;;;;5.72;2.03;;;18.40;84.40;;;;;;5006784;28;20030;-61
2021/07/01 04:51:36;;;;;;;7.13;2.30;;;18.40;84.50;;;;;;5007979;28;20026;-61
2021/07/01 04:54:01;;;;;;;6.88;2.75;;;18.40;84.40;;;;;;5008458;28;20030;-61
2021/07/01 04:56:42;;;;;;;7.72;2.25;;;18.30;84.40;;;;;;4990028;28;20465;-61
2021/07/01 04:59:09;;;;;;;4.93;2.40;;;18.40;84.40;;;;;;5005517;28;20034;-61
2021/07/01 05:01:35;;;;;;;7.10;2.50;;;18.40;84.60;;;;;;5006686;28;20064;-61
2021/07/01 05:04:00;;;;;;;5.53;2.42;;;18.40;84.70;;;;;;5007039;28;20061;-61
2021/07/01 05:06:26;;;;;;;11.80;2.90;;;18.40;84.60;;;;;;5006947;28;20053;-61
2021/07/01 05:08:51;;;;;;;16.63;3.33;;;18.40;84.20;;;;;;5007936;28;20101;-61
2021/07/01 05:11:17;;;;;;;14.57;3.25;;;18.40;84.20;;;;;;5005311;28;20363;-61
2021/07/01 05:13:42;;;;;;;13.45;2.75;;;18.40;84.70;;;;;;5006927;28;20442;-61
2021/07/01 05:16:08;;;;;;;14.80;3.22;;;18.40;84.40;;;;;;5006922;28;20088;-61
2021/07/01 05:18:33;;;;;;;11.20;3.03;;;18.40;84.20;;;;;;5006924;28;20041;-61
2021/07/01 05:20:59;;;;;;;11.23;2.80;;;18.40;84.20;;;;;;5006375;28;20188;-61
2021/07/01 05:23:24;;;;;;;7.70;2.53;;;18.40;84.30;;;;;;5005502;28;20029;-60
2021/07/01 05:25:50;;;;;;;13.88;3.20;;;18.40;84.40;;;;;;5006181;28;20462;-62
2021/07/01 05:28:15;;;;;;;9.55;2.97;;;18.40;84.50;;;;;;5005803;28;20460;-61
2021/07/01 05:30:41;;;;;;;8.43;3.15;;;18.40;84.60;;;;;;5007305;28;20038;-61
2021/07/01 05:33:06;;;;;;;8.27;2.42;;;18.40;84.60;;;;;;4988424;28;20034;-61
2021/07/01 05:35:32;;;;;;;8.75;3.35;;;18.40;84.80;;;;;;4987893;28;20026;-61
2021/07/01 05:37:57;;;;;;;6.85;2.88;;;18.40;84.90;;;;;;5004515;28;20077;-61
2021/07/01 05:40:23;;;;;;;10.75;2.60;;;18.40;85.00;;;;;;5018399;28;20069;-62
2021/07/01 05:42:48;;;;;;;7.60;2.42;;;18.50;84.90;;;;;;5005504;28;20034;-61
2021/07/01 05:45:14;;;;;;;10.43;2.67;;;18.40;84.80;;;;;;4987574;28;20481;-59
2021/07/01 05:47:41;;;;;;;9.90;2.47;;;18.50;85.00;;;;;;5004328;28;20406;-61
2021/07/01 05:50:07;;;;;;;9.15;2.50;;;18.50;85.10;;;;;;5005800;28;20280;-61
2021/07/01 05:52:35;;;;;;;10.20;2.38;;;18.50;85.20;;;;;;5005549;28;20057;-61
2021/07/01 05:55:00;;;;;;;19.48;2.97;;;18.50;84.90;;;;;;4985269;28;20081;-61
2021/07/01 05:57:27;;;;;;;14.90;2.47;;;18.50;85.20;;;;;;5009344;28;20547;-62
2021/07/01 05:59:53;;;;;;;8.15;1.92;;;18.50;85.20;;;;;;5005268;28;20026;-61
2021/07/01 06:02:19;;;;;;;10.68;2.13;;;18.50;85.00;;;;;;4998109;28;20050;-61
2021/07/01 06:04:44;;;;;;;5.07;2.20;;;18.50;84.90;;;;;;4985259;28;20081;-61
2021/07/01 06:07:10;;;;;;;9.20;2.40;;;18.50;84.80;;;;;;5004289;28;20022;-61
2021/07/01 06:09:37;;;;;;;10.13;2.60;;;18.50;84.70;;;;;;4970232;28;20501;-61
2021/07/01 06:12:02;;;;;;;8.43;2.53;;;18.50;84.50;;;;;;4982297;28;20266;-62
2021/07/01 06:14:29;;;;;;;11.35;2.67;;;18.50;84.50;;;;;;5001906;28;20034;-61
2021/07/01 06:16:56;;;;;;;4.43;2.15;;;18.50;84.50;;;;;;4966488;28;20029;-61
2021/07/01 06:19:22;;;;;;;10.55;2.58;;;18.60;84.50;;;;;;5005573;28;20026;-61
2021/07/01 06:21:48;;;;;;;6.40;2.10;;;18.50;84.40;;;;;;4985337;28;20585;-61
2021/07/01 06:24:14;;;;;;;5.55;1.95;;;18.60;84.40;;;;;;5014510;28;20149;-61
2021/07/01 06:26:40;;;;;;;4.78;2.10;;;18.60;84.30;;;;;;4999826;28;20041;-61
2021/07/01 06:29:05;;;;;;;7.93;2.10;;;18.60;84.30;;;;;;4985315;28;20030;-61
2021/07/01 06:31:31;;;;;;;6.88;1.80;;;18.60;85.10;;;;;;4994773;28;21371;-61
2021/07/01 06:33:56;;;;;;;12.98;2.63;;;18.60;84.40;;;;;;5000603;28;20036;-61
2021/07/01 06:36:23;;;;;;;16.35;2.17;;;18.60;84.40;;;;;;4987217;28;20084;-61
2021/07/01 06:38:57;;;;;;;9.63;2.10;;;18.60;84.40;;;;;;4998007;28;20041;-61
2021/07/01 06:41:23;;;;;;;7.70;2.05;;;18.60;84.40;;;;;;4994336;28;20493;-59
2021/07/01 06:43:49;;;;;;;11.35;2.70;;;18.70;84.40;;;;;;5000564;28;20041;-59
2021/07/01 06:46:19;;;;;;;11.65;2.50;;;18.70;84.40;;;;;;5000406;28;20026;-59
2021/07/01 06:48:46;;;;;;;15.38;2.55;;;18.70;84.30;;;;;;4999700;28;20105;-59
2021/07/01 06:51:11;;;;;;;14.43;2.58;;;18.70;84.30;;;;;;4998513;28;20130;-59
2021/07/01 06:53:39;;;;;;;19.98;2.72;;;18.70;84.30;;;;;;4997337;28;20117;-59
2021/07/01 06:56:04;;;;;;;27.95;2.95;;;18.70;84.30;;;;;;4998556;28;20026;-59
2021/07/01 06:58:30;;;;;;;22.17;3.03;;;18.80;84.40;;;;;;5000736;28;20030;-59
2021/07/01 07:00:56;;;;;;;11.60;2.25;;;18.80;84.30;;;;;;4967949;28;20513;-59
2021/07/01 07:03:22;;;;;;;17.50;2.40;;;18.80;85.00;;;;;;5001278;28;20030;-59
2021/07/01 07:05:51;;;;;;;19.58;2.42;;;18.80;84.10;;;;;;5000747;28;20485;-61
2021/07/01 07:08:17;;;;;;;22.92;2.90;;;18.70;85.30;;;;;;4998003;28;21039;-61
2021/07/01 07:10:43;;;;;;;17.88;2.95;;;18.80;85.20;;;;;;4973935;28;20912;-61
2021/07/01 07:13:09;;;;;;;22.52;2.83;;;18.70;85.50;;;;;;5001680;28;20053;-61
2021/07/01 07:15:35;;;;;;;15.02;2.20;;;18.70;86.20;;;;;;4985514;28;20081;-61
2021/07/01 07:18:20;;;;;;;13.88;2.20;;;18.70;85.90;;;;;;4994585;28;20038;-61
2021/07/01 07:20:46;;;;;;;15.85;2.42;;;18.60;86.00;;;;;;4982432;28;20046;-61
2021/07/01 07:23:16;;;;;;;16.15;2.72;;;18.60;86.20;;;;;;4996351;28;20038;-61
2021/07/01 07:25:42;;;;;;;26.55;3.28;;;18.60;87.00;;;;;;4994052;28;20078;-61
2021/07/01 07:28:09;;;;;;;24.80;3.45;;;18.60;86.40;;;;;;4990077;28;20112;-61
2021/07/01 07:30:34;;;;;;;26.88;3.20;;;18.60;86.40;;;;;;4999716;28;20038;-61
2021/07/01 07:33:04;;;;;;;41.63;4.57;;;18.60;86.60;;;;;;4997721;28;20048;-61
2021/07/01 07:35:29;;;;;;;25.10;2.90;;;18.50;86.80;;;;;;4998647;28;20036;-61
2021/07/01 07:37:55;;;;;;;25.60;3.90;;;18.60;86.80;;;;;;5000476;28;20029;-62
2021/07/01 07:40:21;;;;;;;17.63;3.65;;;18.60;86.90;;;;;;4966457;28;20033;-61
2021/07/01 07:42:46;;;;;;;15.68;2.90;;;18.50;87.00;;;;;;4983098;28;20405;-62
2021/07/01 07:45:13;;;;;;;14.52;2.55;;;18.50;87.10;;;;;;5000510;28;20048;-61
2021/07/01 07:47:38;;;;;;;27.92;3.97;;;18.60;87.40;;;;;;4965177;28;20026;-61
2021/07/01 07:50:05;;;;;;;16.45;3.10;;;18.50;87.40;;;;;;5012827;28;20060;-61
2021/07/01 07:52:31;;;;;;;33.00;4.22;;;18.50;87.30;;;;;;4962492;28;20045;-61
2021/07/01 07:54:57;;;;;;;38.47;4.10;;;18.50;87.00;;;;;;4999813;28;20081;-62
2021/07/01 07:57:28;;;;;;;24.17;2.70;;;18.50;86.80;;;;;;4983937;28;20041;-61
2021/07/01 07:59:55;;;;;;;21.00;2.78;;;18.70;86.70;;;;;;4981837;28;20430;-61
2021/07/01 08:02:47;;;;;;;12.43;2.30;;;18.50;86.40;;;;;;4994968;28;20113;-61
2021/07/01 08:05:20;;;;;;;29.77;2.90;;;18.50;86.40;;;;;;5013334;28;20506;-61
2021/07/01 08:07:45;;;;;;;46.70;4.00;;;18.60;86.50;;;;;;4999594;28;20034;-61
2021/07/01 08:10:13;;;;;;;39.38;5.22;;;18.60;86.30;;;;;;4983864;28;20026;-62
2021/07/01 08:12:40;;;;;;;34.10;3.63;;;18.60;86.10;;;;;;4969945;28;20117;-62
2021/07/01 08:15:09;;;;;;;41.22;5.72;;;18.60;85.90;;;;;;5001382;28;20568;-62
2021/07/01 08:17:35;;;;;;;36.45;3.80;;;18.60;85.80;;;;;;5002967;28;20034;-61
2021/07/01 08:20:00;;;;;;;37.05;4.32;;;18.70;85.80;;;;;;5016852;28;20454;-61
2021/07/01 08:22:25;;;;;;;46.65;4.30;;;18.70;85.70;;;;;;4985421;28;20030;-61
2021/07/01 08:24:51;;;;;;;27.50;4.45;;;18.70;85.50;;;;;;5001973;28;20370;-62
2021/07/01 08:27:20;;;;;;;44.00;5.43;;;18.80;85.20;;;;;;4984154;28;20033;-61
2021/07/01 08:29:45;;;;;;;32.50;4.40;;;18.80;85.10;;;;;;5017253;28;20042;-61
2021/07/01 08:32:11;;;;;;;32.08;5.07;;;18.80;84.90;;;;;;4986609;28;20037;-61
2021/07/01 08:34:37;;;;;;;30.85;5.28;;;18.80;84.50;;;;;;4972066;28;20069;-61
2021/07/01 08:37:02;;;;;;;32.22;4.90;;;18.80;84.40;;;;;;5000501;28;20041;-61
2021/07/01 08:39:32;;;;;;;34.20;5.50;;;18.90;84.30;;;;;;5003037;28;20042;-61
2021/07/01 08:41:57;;;;;;;46.72;5.82;;;18.90;84.20;;;;;;4981117;28;20084;-61
2021/07/01 08:44:31;;;;;;;40.08;5.13;;;19.00;84.20;;;;;;4997116;28;21434;-61
2021/07/01 08:47:10;;;;;;;51.20;5.43;;;18.90;84.10;;;;;;5014974;28;20025;-61
2021/07/01 08:49:51;;;;;;;47.70;5.57;;;19.00;84.10;;;;;;4998932;28;20036;-61
2021/07/01 08:52:16;;;;;;;46.97;5.53;;;19.00;84.30;;;;;;5002624;28;20521;-62
2021/07/01 08:54:45;;;;;;;39.45;7.38;;;19.00;84.00;;;;;;5002553;28;20113;-60
2021/07/01 08:57:12;;;;;;;48.72;6.13;;;19.10;84.70;;;;;;4986028;28;20037;-61
2021/07/01 08:59:44;;;;;;;27.50;5.28;;;19.10;84.20;;;;;;4985774;28;20153;-61
2021/07/01 09:02:10;;;;;;;45.45;6.30;;;19.10;84.20;;;;;;4983804;28;20485;-61
2021/07/01 09:05:01;;;;;;;32.88;6.70;;;19.20;84.10;;;;;;4983971;28;20033;-61
2021/07/01 09:07:26;;;;;;;44.95;7.50;;;19.10;83.80;;;;;;4981726;28;20040;-62
2021/07/01 09:09:57;;;;;;;36.65;6.95;;;19.10;83.80;;;;;;5003136;28;20479;-61
2021/07/01 09:12:24;;;;;;;60.67;7.95;;;19.20;83.50;;;;;;4998656;28;20026;-61
2021/07/01 09:15:06;;;;;;;83.13;9.52;;;19.20;83.50;;;;;;4987384;28;20044;-62
2021/07/01 09:17:33;;;;;;;63.78;9.23;;;19.20;83.50;;;;;;5000447;28;20042;-62
2021/07/01 09:20:00;;;;;;;70.78;10.25;;;19.20;83.40;;;;;;4983910;28;20033;-61
2021/07/01 09:22:26;;;;;;;76.60;8.60;;;19.20;83.30;;;;;;5001929;28;20032;-61
2021/07/01 09:24:52;;;;;;;39.47;7.32;;;19.30;83.40;;;;;;5002222;28;20540;-61
2021/07/01 09:27:18;;;;;;;55.03;8.38;;;19.20;83.30;;;;;;5014491;28;20045;-61
2021/07/01 09:29:46;;;;;;;61.75;9.35;;;19.30;83.30;;;;;;4999662;28;21705;-61
2021/07/01 09:32:13;;;;;;;47.83;8.02;;;19.30;83.30;;;;;;4981109;28;20044;-61
2021/07/01 09:34:40;;;;;;;37.97;6.88;;;19.30;83.10;;;;;;4997557;28;20119;-61
2021/07/01 09:37:05;;;;;;;52.85;8.10;;;19.10;82.80;;;;;;4983032;28;20022;-61
2021/07/01 09:39:32;;;;;;;46.35;7.82;;;19.30;82.80;;;;;;5002774;28;20045;-61
2021/07/01 09:42:01;;;;;;;51.85;7.70;;;19.40;82.70;;;;;;5002134;28;20042;-61
2021/07/01 09:44:29;;;;;;;35.10;6.70;;;19.40;82.60;;;;;;5002628;28;20137;-61
2021/07/01 09:46:56;;;;;;;47.38;8.73;;;19.40;82.40;;;;;;5001165;28;20037;-61
2021/07/01 09:49:22;;;;;;;49.63;7.80;;;19.50;82.20;;;;;;4986056;28;20117;-61
2021/07/01 09:51:49;;;;;;;51.38;7.90;;;19.50;82.20;;;;;;4968034;28;20490;-61
2021/07/01 09:54:16;;;;;;;50.00;8.35;;;19.50;82.20;;;;;;4984744;28;20056;-61
2021/07/01 09:56:41;;;;;;;64.22;8.63;;;19.60;82.20;;;;;;4982536;28;20129;-61
2021/07/01 09:59:30;;;;;;;97.05;13.25;;;19.60;82.30;;;;;;5001942;28;20037;-62
2021/07/01 10:02:11;;;;;;;94.00;13.27;;;19.60;82.30;;;;;;4999508;28;20034;-61
2021/07/01 10:04:37;;;;;;;143.07;17.98;;;19.40;82.00;;;;;;5000942;28;20044;-61
2021/07/01 10:07:09;;;;;;;65.50;10.57;;;19.60;82.10;;;;;;4982966;28;20030;-61
2021/07/01 10:09:35;;;;;;;129.63;15.43;;;19.70;82.10;;;;;;4996532;28;20363;-62
2021/07/01 10:12:00;;;;;;;58.70;10.57;;;19.70;82.10;;;;;;4980248;28;20101;-61
2021/07/01 10:14:26;;;;;;;95.18;10.23;;;19.70;82.00;;;;;;4964867;28;20121;-62
2021/07/01 10:16:52;;;;;;;127.25;13.10;;;19.80;81.80;;;;;;4998466;28;20046;-61
2021/07/01 10:19:18;;;;;;;86.03;10.15;;;19.80;81.90;;;;;;5015971;28;20116;-61
2021/07/01 10:21:44;;;;;;;77.05;10.25;;;19.80;81.70;;;;;;4983320;28;20057;-60
2021/07/01 10:24:13;;;;;;;63.13;9.93;;;19.80;81.60;;;;;;4966585;28;20034;-61
2021/07/01 10:26:52;;;;;;;102.32;11.70;;;19.80;81.50;;;;;;4996037;28;20038;-62
2021/07/01 10:29:19;;;;;;;64.80;9.07;;;19.90;81.70;;;;;;5002435;28;20022;-59
2021/07/01 10:31:54;;;;;;;66.88;9.07;;;19.90;81.40;;;;;;4983680;28;20056;-60
2021/07/01 10:34:20;;;;;;;53.60;8.98;;;19.90;81.30;;;;;;4999348;28;20056;-60
2021/07/01 10:36:46;;;;;;;70.68;9.88;;;20.00;81.00;;;;;;4982514;28;20448;-60
2021/07/01 10:39:11;;;;;;;67.30;9.70;;;20.00;80.90;;;;;;4999459;28;20041;-60
2021/07/01 10:41:39;;;;;;;97.88;11.45;;;20.10;80.50;;;;;;5001466;28;20033;-61
2021/07/01 10:44:05;;;;;;;107.75;14.20;;;20.10;80.40;;;;;;5002501;28;20101;-60
2021/07/01 10:46:38;;;;;;;59.92;10.18;;;20.10;79.80;;;;;;5011176;28;20040;-60
2021/07/01 10:49:04;;;;;;;55.00;7.35;;;20.10;79.40;;;;;;5013518;28;20042;-61
2021/07/01 10:51:30;;;;;;;54.20;7.30;;;20.10;78.80;;;;;;4983742;28;20383;-60
2021/07/01 10:54:07;;;;;;;42.55;6.28;;;20.10;78.50;;;;;;5000813;28;20744;-59
2021/07/01 10:56:43;;;;;;;43.38;6.57;;;20.10;78.50;;;;;;4983065;28;20034;-60
2021/07/01 10:59:10;;;;;;;47.45;6.30;;;20.20;78.30;;;;;;5001197;28;20030;-60
2021/07/01 11:01:37;;;;;;;52.25;6.65;;;20.20;78.40;;;;;;5014451;28;20054;-60
2021/07/01 11:04:16;;;;;;;124.45;14.32;;;20.30;78.10;;;;;;4999264;28;20132;-59
2021/07/01 11:06:59;;;;;;;69.63;8.77;;;20.30;77.70;;;;;;5000299;28;20057;-60
2021/07/01 11:09:24;;;;;;;31.30;5.82;;;20.30;77.40;;;;;;4985207;28;20028;-60
2021/07/01 11:12:03;;;;;;;26.05;5.50;;;20.40;76.90;;;;;;4983414;28;20466;-61
2021/07/01 11:14:42;;;;;;;43.47;5.65;;;20.50;76.80;;;;;;4999738;28;20126;-60
2021/07/01 11:17:07;;;;;;;30.30;4.57;;;20.60;76.40;;;;;;4981117;28;20108;-60
2021/07/01 11:19:40;;;;;;;24.50;3.80;;;20.70;76.30;;;;;;5015971;28;20113;-63
2021/07/01 11:22:06;;;;;;;19.92;4.10;;;20.80;75.80;;;;;;5000465;28;20050;-60
2021/07/01 11:24:31;;;;;;;14.73;3.67;;;20.90;75.50;;;;;;5002588;28;20032;-60
2021/07/01 11:26:59;;;;;;;10.95;3.65;;;21.00;75.20;;;;;;4997160;28;20141;-60
2021/07/01 11:29:45;;;;;;;8.25;3.67;;;21.10;74.90;;;;;;4981691;28;20045;-61
2021/07/01 11:32:20;;;;;;;7.00;3.13;;;21.20;74.90;;;;;;4984237;28;20030;-60
2021/07/01 11:34:49;;;;;;;10.80;2.92;;;21.30;74.90;;;;;;4967294;28;20030;-60
2021/07/01 11:37:16;;;;;;;30.65;5.28;;;21.40;74.80;;;;;;4984731;28;20438;-60
2021/07/01 11:39:45;;;;;;;19.70;4.03;;;21.40;74.70;;;;;;4980620;28;20026;-60
2021/07/01 11:42:10;;;;;;;39.83;5.13;;;21.40;74.70;;;;;;5001366;28;20108;-61
2021/07/01 11:44:39;;;;;;;19.55;3.97;;;21.40;74.50;;;;;;4987045;28;20030;-60
2021/07/01 11:47:05;;;;;;;13.80;3.95;;;21.40;74.40;;;;;;4988868;28;20041;-61
2021/07/01 11:49:31;;;;;;;26.58;3.75;;;21.40;74.10;;;;;;5001813;28;20366;-62
2021/07/01 11:51:57;;;;;;;24.10;4.50;;;21.40;74.00;;;;;;4987720;28;20061;-61
2021/07/01 11:54:23;;;;;;;32.88;5.32;;;21.40;74.20;;;;;;4985315;28;20041;-61
2021/07/01 11:56:58;;;;;;;27.00;5.25;;;21.40;74.40;;;;;;5002826;28;20040;-60
2021/07/01 11:59:31;;;;;;;21.40;4.22;;;21.40;74.40;;;;;;4974221;28;20049;-60
2021/07/01 12:01:58;;;;;;;46.05;5.53;;;21.40;74.30;;;;;;4986252;28;20034;-60
2021/07/01 12:04:26;;;;;;;46.90;6.10;;;21.40;74.50;;;;;;4969976;28;20677;-60
2021/07/01 12:07:19;;;;;;;54.17;6.90;;;21.40;74.20;;;;;;5001703;28;20034;-60
2021/07/01 12:09:44;;;;;;;52.28;7.38;;;21.40;74.40;;;;;;5012324;28;20033;-61
2021/07/01 12:12:43;;;;;;;47.45;6.88;;;21.40;74.60;;;;;;5016101;28;20037;-60
2021/07/01 12:15:14;;;;;;;64.25;8.43;;;21.50;74.30;;;;;;5012730;28;20042;-61
2021/07/01 12:18:05;;;;;;;47.22;6.60;;;21.60;74.20;;;;;;5001559;28;20034;-60
2021/07/01 12:20:40;;;;;;;49.83;8.15;;;21.60;74.10;;;;;;4981559;28;20046;-60
2021/07/01 12:23:12;;;;;;;65.97;7.95;;;21.80;73.60;;;;;;4984534;28;20029;-61
2021/07/01 12:25:37;;;;;;;69.75;8.93;;;21.80;73.30;;;;;;4991698;28;20034;-60
2021/07/01 12:28:09;;;;;;;85.28;10.45;;;22.00;73.40;;;;;;4992342;28;20034;-60
2021/07/01 12:31:03;;;;;;;194.90;27.92;;;22.00;72.80;;;;;;4997185;28;20145;-63
2021/07/01 12:33:28;;;;;;;81.70;8.60;;;22.10;72.40;;;;;;4996737;28;20561;-60
2021/07/01 12:36:10;;;;;;;101.70;9.05;;;22.20;71.90;;;;;;4995417;28;20039;-61
2021/07/01 12:38:37;;;;;;;81.72;8.90;;;22.20;72.20;;;;;;4966714;28;20046;-60
2021/07/01 12:41:04;;;;;;;53.83;7.85;;;22.20;72.10;;;;;;4984183;28;20808;-62
2021/07/01 12:43:51;;;;;;;82.03;10.45;;;22.30;71.90;;;;;;5003026;28;21017;-62